createdAt,value
2016-10-24T03:41:55.261Z,1005.83
2016-10-24T03:42:35.751Z,1005.89
2016-10-24T03:43:16.263Z,1005.93
2016-10-24T03:43:56.786Z,1005.97
2016-10-24T03:44:37.324Z,1006
2016-10-24T03:45:17.806Z,1006
2016-10-24T03:45:58.339Z,1006.03
2016-10-24T03:46:38.865Z,1006.02
2016-10-24T03:47:19.404Z,1006.03
2016-10-24T03:47:59.928Z,1006.06
2016-10-24T03:48:40.441Z,1006.02
2016-10-24T03:49:20.959Z,1005.97
2016-10-24T03:50:01.473Z,1005.96
2016-10-24T03:50:41.986Z,1005.91
2016-10-24T03:51:22.525Z,1005.88
2016-10-24T03:52:03.021Z,1005.84
2016-10-24T03:52:43.533Z,1005.83
2016-10-24T03:53:24.052Z,1005.76
2016-10-24T03:54:04.581Z,1005.72
2016-10-24T03:54:45.112Z,1005.67
2016-10-24T03:55:25.614Z,1005.65
2016-10-24T03:56:06.131Z,1005.65
2016-10-24T03:56:46.652Z,1005.65
2016-10-24T03:57:27.169Z,1005.66
2016-10-24T03:58:07.684Z,1005.7
2016-10-24T03:58:48.212Z,1005.75
2016-10-24T03:59:28.736Z,1005.7
2016-10-24T04:00:09.263Z,1005.7
2016-10-24T04:00:49.781Z,1005.69
2016-10-24T04:01:30.295Z,1005.67
2016-10-24T04:02:10.839Z,1005.64
2016-10-24T04:02:51.355Z,1005.67
2016-10-24T04:03:31.907Z,1005.65
2016-10-24T04:04:12.462Z,1005.72
2016-10-24T04:04:52.996Z,1005.76
2016-10-24T04:05:33.524Z,1005.83
2016-10-24T04:06:15.155Z,1005.82
2016-10-24T04:06:55.830Z,1005.89
2016-10-24T04:07:36.352Z,1005.91
2016-10-24T04:08:16.854Z,1005.93
2016-10-24T04:08:58.303Z,1005.95
2016-10-24T04:09:40.770Z,1005.99
2016-10-24T04:10:23.223Z,1006.04
2016-10-24T04:11:03.730Z,1006.1
2016-10-24T04:11:44.260Z,1006.13
2016-10-24T04:12:24.772Z,1006.15
2016-10-24T04:13:05.274Z,1006.15
2016-10-24T04:13:45.780Z,1006.15
2016-10-24T04:14:26.316Z,1006.18
2016-10-24T04:15:06.823Z,1006.17
2016-10-24T04:15:47.328Z,1006.23
2016-10-24T04:16:27.847Z,1006.2
2016-10-24T04:17:08.363Z,1006.2
2016-10-24T04:17:48.905Z,1006.25
2016-10-24T04:18:29.469Z,1006.24
2016-10-24T04:19:10.038Z,1006.26
2016-10-24T04:19:50.551Z,1006.27
2016-10-24T04:20:31.138Z,1006.31
2016-10-24T04:21:11.650Z,1006.31
2016-10-24T04:21:52.150Z,1006.35
2016-10-24T04:22:32.654Z,1006.36
2016-10-24T04:23:13.788Z,1006.34
2016-10-24T04:23:54.427Z,1006.31
2016-10-24T04:24:34.950Z,1006.29
2016-10-24T04:25:15.488Z,1006.25
2016-10-24T04:25:56.034Z,1006.25
2016-10-24T04:26:36.580Z,1006.2
2016-10-24T04:27:17.090Z,1006.2
2016-10-24T04:27:57.692Z,1006.24
2016-10-24T04:28:38.336Z,1006.23
2016-10-24T04:29:18.789Z,1006.2
2016-10-24T04:29:59.310Z,1006.23
2016-10-24T04:30:39.835Z,1006.19
2016-10-24T04:31:20.325Z,1006.17
2016-10-24T04:32:00.825Z,1006.19
2016-10-24T04:32:41.340Z,1006.19
2016-10-24T04:33:21.844Z,1006.26
2016-10-24T04:34:02.358Z,1006.25
2016-10-24T04:34:42.854Z,1006.28
2016-10-24T04:35:23.369Z,1006.29
2016-10-24T04:36:03.886Z,1006.3
2016-10-24T04:36:44.369Z,1006.28
2016-10-24T04:37:24.877Z,1006.29
2016-10-24T04:38:05.418Z,1006.32
2016-10-24T04:38:45.902Z,1006.28
2016-10-24T04:39:26.417Z,1006.33
2016-10-24T04:40:07.097Z,1006.28
2016-10-24T04:40:47.588Z,1006.28
2016-10-24T04:41:28.097Z,1006.27
2016-10-24T04:42:08.620Z,1006.32
2016-10-24T04:42:49.126Z,1006.33
2016-10-24T04:43:29.647Z,1006.35
2016-10-24T04:44:10.182Z,1006.37
2016-10-24T04:44:50.678Z,1006.35
2016-10-24T04:45:31.188Z,1006.31
2016-10-24T04:46:11.724Z,1006.3
2016-10-24T04:46:52.224Z,1006.27
2016-10-24T04:47:32.739Z,1006.25
2016-10-24T04:48:13.276Z,1006.25
2016-10-24T04:48:53.792Z,1006.21
2016-10-24T04:49:34.294Z,1006.21
2016-10-24T04:50:14.809Z,1006.22
2016-10-24T04:50:55.309Z,1006.21
2016-10-24T04:51:35.814Z,1006.19
2016-10-24T04:52:16.326Z,1006.16
2016-10-24T04:52:56.835Z,1006.13
2016-10-24T04:53:37.354Z,1006.13
2016-10-24T04:54:17.872Z,1006.18
2016-10-24T04:54:58.414Z,1006.16
2016-10-24T04:55:38.937Z,1006.22
2016-10-24T04:56:19.447Z,1006.21
2016-10-24T04:56:59.976Z,1006.21
2016-10-24T04:57:40.492Z,1006.24
2016-10-24T04:58:21.026Z,1006.26
2016-10-24T04:59:01.538Z,1006.24
2016-10-24T04:59:42.070Z,1006.22
2016-10-24T05:00:22.569Z,1006.15
2016-10-24T05:01:03.138Z,1006.1
2016-10-24T05:01:43.603Z,1006.14
2016-10-24T05:02:24.127Z,1006.08
2016-10-24T05:03:04.633Z,1006.06
2016-10-24T05:03:45.141Z,1006.05
2016-10-24T05:04:25.676Z,1006.07
2016-10-24T05:05:06.177Z,1006.09
2016-10-24T05:05:46.702Z,1006.06
2016-10-24T05:06:27.194Z,1006.1
2016-10-24T05:07:07.721Z,1006.1
2016-10-24T05:07:48.253Z,1006.06
2016-10-24T05:08:28.766Z,1006.04
2016-10-24T05:09:09.290Z,1005.99
2016-10-24T05:09:49.797Z,1006
2016-10-24T05:10:30.319Z,1006.01
2016-10-24T05:11:10.857Z,1006
2016-10-24T05:11:51.385Z,1005.99
2016-10-24T05:12:31.921Z,1005.94
2016-10-24T05:13:12.431Z,1005.94
2016-10-24T05:13:52.968Z,1005.93
2016-10-24T05:14:33.491Z,1005.9
2016-10-24T05:15:14.027Z,1005.88
2016-10-24T05:15:54.543Z,1005.85
2016-10-24T05:16:35.116Z,1005.85
2016-10-24T05:17:15.645Z,1005.86
2016-10-24T05:17:56.174Z,1005.81
2016-10-24T05:18:36.686Z,1005.79
2016-10-24T05:19:17.208Z,1005.8
2016-10-24T05:19:57.731Z,1005.73
2016-10-24T05:20:38.254Z,1005.72
2016-10-24T05:21:18.771Z,1005.65
2016-10-24T05:21:59.291Z,1005.7
2016-10-24T05:22:39.823Z,1005.64
2016-10-24T05:23:20.353Z,1005.67
2016-10-24T05:24:00.878Z,1005.68
2016-10-24T05:24:41.413Z,1005.69
2016-10-24T05:25:21.923Z,1005.69
2016-10-24T05:26:02.457Z,1005.71
2016-10-24T05:26:42.967Z,1005.74
2016-10-24T05:27:23.499Z,1005.75
2016-10-24T05:28:04.024Z,1005.76
2016-10-24T05:28:44.567Z,1005.75
2016-10-24T05:29:25.109Z,1005.78
2016-10-24T05:30:05.647Z,1005.8
2016-10-24T05:30:46.171Z,1005.8
2016-10-24T05:31:26.707Z,1005.81
2016-10-24T05:32:07.224Z,1005.74
2016-10-24T05:32:47.744Z,1005.78
2016-10-24T05:33:28.286Z,1005.81
2016-10-24T05:34:08.835Z,1005.8
2016-10-24T05:34:49.384Z,1005.78
2016-10-24T05:35:29.902Z,1005.84
2016-10-24T05:36:10.422Z,1005.84
2016-10-24T05:36:50.976Z,1005.91
2016-10-24T05:37:31.468Z,1005.91
2016-10-24T05:38:11.983Z,1005.97
2016-10-24T05:38:52.514Z,1005.98
2016-10-24T05:39:33.046Z,1006
2016-10-24T05:40:13.585Z,1006.02
2016-10-24T05:40:54.119Z,1006.02
2016-10-24T05:41:34.648Z,1006.06
2016-10-24T05:42:15.172Z,1006.03
2016-10-24T05:42:55.703Z,1006.01
2016-10-24T05:43:36.231Z,1006.01
2016-10-24T05:44:16.752Z,1005.96
2016-10-24T05:44:57.275Z,1006
2016-10-24T05:45:37.835Z,1005.99
2016-10-24T05:46:18.365Z,1006.02
2016-10-24T05:46:58.915Z,1006.05
2016-10-24T05:47:39.462Z,1006.09
2016-10-24T05:48:20.023Z,1006.1
2016-10-24T05:49:00.554Z,1006.13
2016-10-24T05:49:41.100Z,1006.14
2016-10-24T05:50:21.650Z,1006.18
2016-10-24T05:51:02.186Z,1006.22
2016-10-24T05:53:01.312Z,1006.3
2016-10-24T05:53:41.849Z,1006.3
2016-10-24T05:54:22.360Z,1006.26
2016-10-24T05:55:02.887Z,1006.26
2016-10-24T05:55:43.418Z,1006.22
2016-10-24T05:56:23.943Z,1006.23
2016-10-24T05:57:04.455Z,1006.2
2016-10-24T05:57:44.990Z,1006.23
2016-10-24T05:58:25.505Z,1006.23
2016-10-24T05:59:06.004Z,1006.23
2016-10-24T05:59:46.534Z,1006.2
2016-10-24T06:00:27.064Z,1006.21
2016-10-24T06:01:07.601Z,1006.19
2016-10-24T06:01:48.090Z,1006.2
2016-10-24T06:02:28.625Z,1006.18
2016-10-24T06:03:09.155Z,1006.18
2016-10-24T06:03:49.649Z,1006.12
2016-10-24T06:04:30.171Z,1006.14
2016-10-24T06:05:10.698Z,1006.15
2016-10-24T06:05:51.210Z,1006.13
2016-10-24T06:06:31.749Z,1006.19
2016-10-24T06:07:12.257Z,1006.19
2016-10-24T06:07:52.780Z,1006.24
2016-10-24T06:08:33.283Z,1006.22
2016-10-24T06:09:13.818Z,1006.21
2016-10-24T06:09:54.352Z,1006.22
2016-10-24T06:10:34.880Z,1006.17
2016-10-24T06:11:15.399Z,1006.16
2016-10-24T06:11:55.917Z,1006.19
2016-10-24T06:12:36.459Z,1006.09
2016-10-24T06:13:16.987Z,1006.14
2016-10-24T06:13:57.496Z,1006.15
2016-10-24T06:14:38.017Z,1006.11
2016-10-24T06:15:18.560Z,1006.12
2016-10-24T06:15:59.109Z,1006.16
2016-10-24T06:16:39.769Z,1006.16
2016-10-24T06:17:20.283Z,1006.21
2016-10-24T06:18:00.803Z,1006.23
2016-10-24T06:18:41.329Z,1006.23
2016-10-24T06:19:21.871Z,1006.25
2016-10-24T06:20:02.403Z,1006.23
2016-10-24T06:20:42.922Z,1006.26
2016-10-24T06:21:23.432Z,1006.23
2016-10-24T06:22:03.953Z,1006.29
2016-10-24T06:22:44.499Z,1006.3
2016-10-24T06:23:25.023Z,1006.32
2016-10-24T06:24:05.552Z,1006.34
2016-10-24T06:24:46.090Z,1006.39
2016-10-24T06:25:26.626Z,1006.41
2016-10-24T06:26:07.156Z,1006.48
2016-10-24T06:26:47.687Z,1006.47
2016-10-24T06:27:28.210Z,1006.49
2016-10-24T06:28:08.747Z,1006.52
2016-10-24T06:28:49.283Z,1006.45
2016-10-24T06:29:29.824Z,1006.52
2016-10-24T06:30:10.328Z,1006.47
2016-10-24T06:30:50.859Z,1006.48
2016-10-24T06:31:31.373Z,1006.53
2016-10-24T06:32:11.901Z,1006.47
2016-10-24T06:32:52.419Z,1006.44
2016-10-24T06:33:32.930Z,1006.47
2016-10-24T06:34:13.455Z,1006.47
2016-10-24T06:34:53.981Z,1006.46
2016-10-24T06:35:34.487Z,1006.49
2016-10-24T06:36:15.030Z,1006.5
2016-10-24T06:36:55.561Z,1006.52
2016-10-24T06:37:36.101Z,1006.49
2016-10-24T06:38:16.631Z,1006.48
2016-10-24T06:38:57.153Z,1006.43
2016-10-24T06:39:37.683Z,1006.46
2016-10-24T06:40:18.210Z,1006.43
2016-10-24T06:40:58.732Z,1006.43
2016-10-24T06:41:39.264Z,1006.44
2016-10-24T06:42:19.777Z,1006.49
2016-10-24T06:43:00.294Z,1006.52
2016-10-24T06:43:40.816Z,1006.52
2016-10-24T06:44:21.323Z,1006.52
2016-10-24T06:45:01.859Z,1006.5
2016-10-24T06:45:42.382Z,1006.46
2016-10-24T06:46:22.886Z,1006.39
2016-10-24T06:47:03.435Z,1006.38
2016-10-24T06:47:43.958Z,1006.43
2016-10-24T06:48:24.479Z,1006.4
2016-10-24T06:49:05.002Z,1006.43
2016-10-24T06:49:45.525Z,1006.47
2016-10-24T06:50:26.066Z,1006.49
2016-10-24T06:51:06.600Z,1006.47
2016-10-24T06:51:47.093Z,1006.46
2016-10-24T06:52:27.639Z,1006.45
2016-10-24T06:53:08.172Z,1006.43
2016-10-24T06:53:48.695Z,1006.41
2016-10-24T06:54:29.215Z,1006.36
2016-10-24T06:55:09.735Z,1006.41
2016-10-24T06:55:50.274Z,1006.4
2016-10-24T06:56:30.788Z,1006.41
2016-10-24T06:57:11.325Z,1006.41
2016-10-24T06:57:53.727Z,1006.38
2016-10-24T06:58:34.253Z,1006.41
2016-10-24T06:59:14.792Z,1006.4
2016-10-24T06:59:55.334Z,1006.38
2016-10-24T07:00:35.852Z,1006.36
2016-10-24T07:01:16.695Z,1006.35
2016-10-24T07:01:57.327Z,1006.35
2016-10-24T07:02:37.866Z,1006.33
2016-10-24T07:03:18.394Z,1006.32
2016-10-24T07:03:58.920Z,1006.29
2016-10-24T07:04:39.450Z,1006.25
2016-10-24T07:05:20.001Z,1006.27
2016-10-24T07:06:00.506Z,1006.29
2016-10-24T07:06:41.028Z,1006.33
2016-10-24T07:07:21.571Z,1006.36
2016-10-24T07:08:02.087Z,1006.44
2016-10-24T07:08:42.618Z,1006.5
2016-10-24T07:09:23.139Z,1006.58
2016-10-24T07:10:03.660Z,1006.62
2016-10-24T07:10:44.172Z,1006.67
2016-10-24T07:11:24.716Z,1006.76
2016-10-24T07:12:05.251Z,1006.76
2016-10-24T07:12:45.791Z,1006.78
2016-10-24T07:13:26.319Z,1006.72
2016-10-24T07:14:06.832Z,1006.72
2016-10-24T07:14:47.382Z,1006.68
2016-10-24T07:15:27.900Z,1006.71
2016-10-24T07:16:08.435Z,1006.71
2016-10-24T07:16:48.963Z,1006.7
2016-10-24T07:17:29.485Z,1006.71
2016-10-24T07:18:10.003Z,1006.66
2016-10-24T07:18:50.536Z,1006.58
2016-10-24T07:19:31.041Z,1006.54
2016-10-24T07:20:11.572Z,1006.53
2016-10-24T07:20:52.113Z,1006.53
2016-10-24T07:21:32.656Z,1006.49
2016-10-24T07:22:13.181Z,1006.41
2016-10-24T07:22:53.687Z,1006.36
2016-10-24T07:23:34.224Z,1006.31
2016-10-24T07:24:14.754Z,1006.35
2016-10-24T07:24:55.267Z,1006.4
2016-10-24T07:25:35.775Z,1006.36
2016-10-24T07:26:16.305Z,1006.42
2016-10-24T07:26:56.858Z,1006.4
2016-10-24T07:27:37.388Z,1006.42
2016-10-24T07:28:17.910Z,1006.44
2016-10-24T07:28:58.435Z,1006.5
2016-10-24T07:29:38.954Z,1006.46
2016-10-24T07:30:19.492Z,1006.51
2016-10-24T07:31:00.022Z,1006.56
2016-10-24T07:31:40.538Z,1006.56
2016-10-24T07:32:21.062Z,1006.6
2016-10-24T07:33:01.602Z,1006.62
2016-10-24T07:33:42.103Z,1006.55
2016-10-24T07:34:22.633Z,1006.59
2016-10-24T07:35:03.140Z,1006.62
2016-10-24T07:35:43.689Z,1006.59
2016-10-24T07:36:24.217Z,1006.66
2016-10-24T07:37:04.736Z,1006.72
2016-10-24T07:37:45.248Z,1006.81
2016-10-24T07:38:25.784Z,1006.8
2016-10-24T07:39:06.308Z,1006.82
2016-10-24T07:39:46.834Z,1006.81
2016-10-24T07:40:27.368Z,1006.88
2016-10-24T07:41:07.905Z,1006.84
2016-10-24T07:41:48.429Z,1006.89
2016-10-24T07:42:28.956Z,1006.83
2016-10-24T07:43:09.485Z,1006.88
2016-10-24T07:43:50.011Z,1006.85
2016-10-24T07:44:30.563Z,1006.89
2016-10-24T07:45:11.099Z,1006.86
2016-10-24T07:45:51.596Z,1006.82
2016-10-24T07:46:32.134Z,1006.81
2016-10-24T07:47:12.657Z,1006.83
2016-10-24T07:47:53.194Z,1006.85
2016-10-24T07:48:33.711Z,1006.86
2016-10-24T07:49:14.235Z,1006.9
2016-10-24T07:49:54.750Z,1006.87
2016-10-24T07:50:35.294Z,1006.85
2016-10-24T07:51:15.816Z,1006.89
2016-10-24T07:51:56.346Z,1006.9
2016-10-24T07:52:36.862Z,1006.89
2016-10-24T07:53:17.408Z,1006.93
2016-10-24T07:53:57.913Z,1006.96
2016-10-24T07:54:38.439Z,1007.05
2016-10-24T07:55:18.977Z,1007.1
2016-10-24T07:55:59.503Z,1007.08
2016-10-24T07:56:40.004Z,1007.08
2016-10-24T07:57:20.539Z,1007.11
2016-10-24T07:58:01.074Z,1007.06
2016-10-24T07:58:41.597Z,1007.05
2016-10-24T07:59:22.108Z,1007.08
2016-10-24T08:00:02.643Z,1007.04
2016-10-24T08:00:43.156Z,1007.06
2016-10-24T08:01:23.702Z,1007.01
2016-10-24T08:02:04.231Z,1007
2016-10-24T08:02:44.762Z,1007.01
2016-10-24T08:03:25.291Z,1006.96
2016-10-24T08:04:05.819Z,1006.94
2016-10-24T08:04:46.351Z,1006.91
2016-10-24T08:05:26.902Z,1006.86
2016-10-24T08:06:07.434Z,1006.82
2016-10-24T08:06:47.960Z,1006.73
2016-10-24T08:07:28.480Z,1006.71
2016-10-24T08:08:09.014Z,1006.7
2016-10-24T08:08:49.553Z,1006.71
2016-10-24T08:09:30.069Z,1006.66
2016-10-24T08:10:10.597Z,1006.66
2016-10-24T08:10:51.126Z,1006.63
2016-10-24T08:11:31.662Z,1006.61
2016-10-24T08:12:12.183Z,1006.66
2016-10-24T08:12:52.701Z,1006.66
2016-10-24T08:13:33.224Z,1006.68
2016-10-24T08:14:13.761Z,1006.71
2016-10-24T08:14:54.310Z,1006.72
2016-10-24T08:15:34.845Z,1006.72
2016-10-24T08:16:15.390Z,1006.71
2016-10-24T08:16:55.921Z,1006.72
2016-10-24T08:17:36.451Z,1006.71
2016-10-24T08:18:16.963Z,1006.7
2016-10-24T08:18:57.497Z,1006.69
2016-10-24T08:19:38.011Z,1006.7
2016-10-24T08:20:18.545Z,1006.67
2016-10-24T08:20:59.072Z,1006.65
2016-10-24T08:21:39.609Z,1006.63
2016-10-24T08:22:20.135Z,1006.63
2016-10-24T08:23:00.655Z,1006.57
2016-10-24T08:23:41.168Z,1006.56
2016-10-24T08:24:21.701Z,1006.54
2016-10-24T08:25:02.215Z,1006.56
2016-10-24T08:25:42.771Z,1006.59
2016-10-24T08:26:23.293Z,1006.59
2016-10-24T08:27:03.834Z,1006.63
2016-10-24T08:27:44.374Z,1006.64
2016-10-24T08:28:24.884Z,1006.64
2016-10-24T08:29:05.425Z,1006.74
2016-10-24T08:29:45.956Z,1006.79
2016-10-24T08:30:26.489Z,1006.84
2016-10-24T08:31:07.017Z,1006.81
2016-10-24T08:31:47.520Z,1006.84
2016-10-24T08:32:28.046Z,1006.81
2016-10-24T08:33:08.577Z,1006.82
2016-10-24T08:33:49.107Z,1006.84
2016-10-24T08:34:29.638Z,1006.82
2016-10-24T08:35:10.137Z,1006.82
2016-10-24T08:35:50.678Z,1006.77
2016-10-24T08:36:31.203Z,1006.77
2016-10-24T08:37:11.740Z,1006.78
2016-10-24T08:37:52.264Z,1006.74
2016-10-24T08:38:32.781Z,1006.75
2016-10-24T08:39:13.328Z,1006.71
2016-10-24T08:39:53.866Z,1006.74
2016-10-24T08:40:34.389Z,1006.78
2016-10-24T08:41:14.914Z,1006.77
2016-10-24T08:41:55.440Z,1006.78
2016-10-24T08:42:35.981Z,1006.74
2016-10-24T08:43:16.518Z,1006.75
2016-10-24T08:43:57.047Z,1006.77
2016-10-24T08:44:37.553Z,1006.77
2016-10-24T08:45:18.089Z,1006.79
2016-10-24T08:45:58.622Z,1006.78
2016-10-24T08:46:39.136Z,1006.78
2016-10-24T08:47:19.667Z,1006.76
2016-10-24T08:48:00.185Z,1006.75
2016-10-24T08:48:40.723Z,1006.73
2016-10-24T08:49:21.251Z,1006.73
2016-10-24T08:50:01.750Z,1006.71
2016-10-24T08:50:42.272Z,1006.7
2016-10-24T08:51:22.812Z,1006.66
2016-10-24T08:52:03.330Z,1006.63
2016-10-24T08:52:43.871Z,1006.62
2016-10-24T08:53:24.385Z,1006.6
2016-10-24T08:54:04.915Z,1006.59
2016-10-24T08:54:45.441Z,1006.56
2016-10-24T08:55:25.953Z,1006.52
2016-10-24T08:56:06.486Z,1006.48
2016-10-24T08:56:46.999Z,1006.47
2016-10-24T08:57:27.524Z,1006.44
2016-10-24T08:58:08.037Z,1006.4
2016-10-24T08:58:48.574Z,1006.38
2016-10-24T08:59:29.083Z,1006.35
2016-10-24T09:00:09.616Z,1006.35
2016-10-24T09:00:50.146Z,1006.3
2016-10-24T09:01:30.678Z,1006.29
2016-10-24T09:02:11.202Z,1006.23
2016-10-24T09:02:51.710Z,1006.16
2016-10-24T09:03:32.255Z,1006.16
2016-10-24T09:04:12.802Z,1006.08
2016-10-24T09:04:53.328Z,1006.05
2016-10-24T09:05:33.841Z,1006.07
2016-10-24T09:06:14.375Z,1006.05
2016-10-24T09:06:54.902Z,1006.06
2016-10-24T09:07:35.440Z,1006.11
2016-10-24T09:08:15.968Z,1006.15
2016-10-24T09:08:56.494Z,1006.2
2016-10-24T09:09:37.007Z,1006.14
2016-10-24T09:10:17.528Z,1006.21
2016-10-24T09:10:58.058Z,1006.25
2016-10-24T09:11:38.589Z,1006.25
2016-10-24T09:12:19.129Z,1006.23
2016-10-24T09:12:59.662Z,1006.19
2016-10-24T09:13:40.205Z,1006.2
2016-10-24T09:14:20.735Z,1006.17
2016-10-24T09:15:01.261Z,1006.16
2016-10-24T09:15:41.789Z,1006.14
2016-10-24T09:16:22.309Z,1006.11
2016-10-24T09:17:02.855Z,1006.1
2016-10-24T09:17:43.372Z,1006.08
2016-10-24T09:18:23.881Z,1006.13
2016-10-24T09:19:04.397Z,1006.12
2016-10-24T09:19:44.933Z,1006.14
2016-10-24T09:20:25.475Z,1006.17
2016-10-24T09:21:06.003Z,1006.15
2016-10-24T09:21:46.528Z,1006.16
2016-10-24T09:22:27.051Z,1006.17
2016-10-24T09:23:07.579Z,1006.18
2016-10-24T09:23:48.102Z,1006.16
2016-10-24T09:24:28.631Z,1006.13
2016-10-24T09:25:09.164Z,1006.12
2016-10-24T09:25:49.708Z,1006.13
2016-10-24T09:26:30.239Z,1006.1
2016-10-24T09:27:10.757Z,1006.11
2016-10-24T09:27:51.268Z,1006.09
2016-10-24T09:28:31.797Z,1006.07
2016-10-24T09:29:12.335Z,1006.1
2016-10-24T09:29:52.857Z,1006.08
2016-10-24T09:30:33.384Z,1006.09
2016-10-24T09:31:13.907Z,1006.08
2016-10-24T09:31:54.456Z,1006.1
2016-10-24T09:32:34.979Z,1006.1
2016-10-24T09:33:15.492Z,1006.14
2016-10-24T09:33:56.018Z,1006.12
2016-10-24T09:34:36.555Z,1006.14
2016-10-24T09:35:17.082Z,1006.14
2016-10-24T09:35:57.589Z,1006.12
2016-10-24T09:36:38.122Z,1006.13
2016-10-24T09:37:18.646Z,1006.13
2016-10-24T09:37:59.184Z,1006.17
2016-10-24T09:38:39.684Z,1006.14
2016-10-24T09:39:20.206Z,1006.15
2016-10-24T09:40:00.743Z,1006.13
2016-10-24T09:40:41.286Z,1006.16
2016-10-24T09:41:21.805Z,1006.17
2016-10-24T09:42:02.333Z,1006.19
2016-10-24T09:42:42.852Z,1006.17
2016-10-24T09:43:23.387Z,1006.22
2016-10-24T09:44:03.890Z,1006.23
2016-10-24T09:44:44.407Z,1006.23
2016-10-24T09:45:24.945Z,1006.26
2016-10-24T09:46:05.461Z,1006.29
2016-10-24T09:46:45.977Z,1006.3
2016-10-24T09:47:26.518Z,1006.3
2016-10-24T09:48:07.059Z,1006.34
2016-10-24T09:48:47.587Z,1006.36
2016-10-24T09:49:28.116Z,1006.4
2016-10-24T09:50:08.679Z,1006.42
2016-10-24T09:50:49.191Z,1006.46
2016-10-24T09:51:29.729Z,1006.49
2016-10-24T09:52:10.270Z,1006.53
2016-10-24T09:52:50.800Z,1006.58
2016-10-24T09:53:31.331Z,1006.6
2016-10-24T09:54:11.834Z,1006.62
2016-10-24T09:54:52.367Z,1006.66
2016-10-24T09:55:32.917Z,1006.63
2016-10-24T09:56:13.453Z,1006.64
2016-10-24T09:56:53.956Z,1006.69
2016-10-24T09:57:34.496Z,1006.67
2016-10-24T09:58:15.021Z,1006.69
2016-10-24T09:58:55.552Z,1006.74
2016-10-24T09:59:36.078Z,1006.73
2016-10-24T10:00:16.597Z,1006.78
2016-10-24T10:00:57.117Z,1006.75
2016-10-24T10:01:37.637Z,1006.77
2016-10-24T10:02:18.167Z,1006.77
2016-10-24T10:02:58.696Z,1006.76
2016-10-24T10:03:39.216Z,1006.74
2016-10-24T10:04:19.762Z,1006.77
2016-10-24T10:05:00.291Z,1006.74
2016-10-24T10:05:40.819Z,1006.78
2016-10-24T10:06:21.343Z,1006.78
2016-10-24T10:07:01.859Z,1006.81
2016-10-24T10:07:42.401Z,1006.8
2016-10-24T10:08:22.932Z,1006.77
2016-10-24T10:09:03.455Z,1006.76
2016-10-24T10:09:43.984Z,1006.77
2016-10-24T10:10:24.518Z,1006.79
2016-10-24T10:11:05.053Z,1006.76
2016-10-24T10:11:45.562Z,1006.74
2016-10-24T10:12:26.107Z,1006.73
2016-10-24T10:13:06.626Z,1006.72
2016-10-24T10:13:47.146Z,1006.72
2016-10-24T10:14:27.682Z,1006.69
2016-10-24T10:15:08.192Z,1006.7
2016-10-24T10:15:48.705Z,1006.62
2016-10-24T10:16:29.243Z,1006.6
2016-10-24T10:17:09.772Z,1006.55
2016-10-24T10:17:50.298Z,1006.51
2016-10-24T10:18:30.815Z,1006.48
2016-10-24T10:19:11.326Z,1006.45
2016-10-24T10:19:51.852Z,1006.42
2016-10-24T10:20:32.386Z,1006.33
2016-10-24T10:21:12.919Z,1006.22
2016-10-24T10:21:53.423Z,1006.17
2016-10-24T10:22:33.951Z,1006.15
2016-10-24T10:23:14.473Z,1006.08
2016-10-24T10:23:55.010Z,1006.05
2016-10-24T10:24:35.532Z,1006.01
2016-10-24T10:25:16.067Z,1005.99
2016-10-24T10:25:56.602Z,1005.98
2016-10-24T10:26:37.165Z,1005.95
2016-10-24T10:27:17.653Z,1005.89
2016-10-24T10:27:58.168Z,1005.93
2016-10-24T10:28:38.717Z,1005.89
2016-10-24T10:29:19.222Z,1005.92
2016-10-24T10:29:59.760Z,1005.9
2016-10-24T10:30:40.287Z,1005.89
2016-10-24T10:31:20.801Z,1005.91
2016-10-24T10:32:01.327Z,1005.87
2016-10-24T10:32:41.862Z,1005.85
2016-10-24T10:33:22.395Z,1005.84
2016-10-24T10:34:02.919Z,1005.81
2016-10-24T10:34:43.424Z,1005.83
2016-10-24T10:35:23.954Z,1005.79
2016-10-24T10:36:04.482Z,1005.78
2016-10-24T10:36:44.996Z,1005.76
2016-10-24T10:37:25.509Z,1005.73
2016-10-24T10:38:06.024Z,1005.72
2016-10-24T10:38:46.538Z,1005.76
2016-10-24T10:39:27.079Z,1005.74
2016-10-24T10:40:07.610Z,1005.78
2016-10-24T10:40:48.119Z,1005.77
2016-10-24T10:41:28.657Z,1005.8
2016-10-24T10:42:09.178Z,1005.85
2016-10-24T10:42:49.714Z,1005.82
2016-10-24T10:43:30.241Z,1005.89
2016-10-24T10:44:10.755Z,1005.79
2016-10-24T10:44:51.279Z,1005.76
2016-10-24T10:45:31.812Z,1005.78
2016-10-24T10:46:12.339Z,1005.75
2016-10-24T10:46:52.867Z,1005.73
2016-10-24T10:47:33.393Z,1005.72
2016-10-24T10:48:13.911Z,1005.7
2016-10-24T10:48:54.443Z,1005.67
2016-10-24T10:49:34.968Z,1005.65
2016-10-24T10:50:15.530Z,1005.71
2016-10-24T10:50:56.036Z,1005.68
2016-10-24T10:51:36.563Z,1005.68
2016-10-24T10:52:17.089Z,1005.69
2016-10-24T10:52:57.603Z,1005.68
2016-10-24T10:53:38.135Z,1005.73
2016-10-24T10:54:18.668Z,1005.75
2016-10-24T10:54:59.196Z,1005.72
2016-10-24T10:55:39.781Z,1005.72
2016-10-24T10:56:20.267Z,1005.71
2016-10-24T10:57:00.792Z,1005.78
2016-10-24T10:57:41.337Z,1005.79
2016-10-24T10:58:21.864Z,1005.79
2016-10-24T10:59:02.396Z,1005.83
2016-10-24T10:59:42.941Z,1005.84
2016-10-24T11:00:23.466Z,1005.87
2016-10-24T11:01:04.020Z,1005.85
2016-10-24T11:01:44.501Z,1005.87
2016-10-24T11:02:25.037Z,1005.84
2016-10-24T11:03:05.555Z,1005.84
2016-10-24T11:03:46.091Z,1005.84
2016-10-24T11:04:26.629Z,1005.83
2016-10-24T11:05:07.150Z,1005.92
2016-10-24T11:05:47.689Z,1005.95
2016-10-24T11:06:28.210Z,1005.97
2016-10-24T11:07:08.708Z,1005.97
2016-10-24T11:07:49.240Z,1006.01
2016-10-24T11:08:29.752Z,1006.06
2016-10-24T11:09:10.292Z,1006.02
2016-10-24T11:09:50.814Z,1006.02
2016-10-24T11:10:31.327Z,1005.95
2016-10-24T11:11:11.819Z,1005.93
2016-10-24T11:11:52.338Z,1005.92
2016-10-24T11:12:32.842Z,1005.91
2016-10-24T11:13:13.351Z,1005.88
2016-10-24T11:13:53.869Z,1005.88
2016-10-24T11:14:34.335Z,1005.86
2016-10-24T11:15:14.842Z,1005.84
2016-10-24T11:15:55.347Z,1005.88
2016-10-24T11:16:35.922Z,1005.86
2016-10-24T11:17:16.857Z,1005.81
2016-10-24T11:17:57.349Z,1005.84
2016-10-24T11:18:38.482Z,1005.84
2016-10-24T11:19:18.972Z,1005.88
2016-10-24T11:19:59.778Z,1005.86
2016-10-24T11:20:40.046Z,1005.92
2016-10-24T11:21:20.821Z,1005.93
2016-10-24T11:22:01.377Z,1005.94
2016-10-24T11:22:41.906Z,1005.97
2016-10-24T11:23:22.519Z,1005.93
2016-10-24T11:24:03.031Z,1005.95
2016-10-24T11:24:43.556Z,1005.96
2016-10-24T11:25:24.120Z,1006.03
2016-10-24T11:26:04.641Z,1006.01
2016-10-24T11:26:45.141Z,1006.04
2016-10-24T11:27:25.663Z,1006.02
2016-10-24T11:28:06.176Z,1006.03
2016-10-24T11:28:46.695Z,1005.96
2016-10-24T11:29:27.222Z,1005.99
2016-10-24T11:30:07.772Z,1005.97
2016-10-24T11:30:48.297Z,1005.97
2016-10-24T11:31:29.362Z,1005.98
2016-10-24T11:32:12.070Z,1005.99
2016-10-24T11:32:52.534Z,1005.99
2016-10-24T11:33:34.639Z,1006.02
2016-10-24T11:34:15.168Z,1005.99
2016-10-24T11:34:56.009Z,1006.02
2016-10-24T11:35:36.609Z,1006.06
2016-10-24T11:36:17.342Z,1006.08
2016-10-24T11:38:47.101Z,1006.14
2016-10-24T11:39:28.513Z,1006.16
2016-10-24T11:40:09.609Z,1006.18
2016-10-24T11:40:50.072Z,1006.14
2016-10-24T11:41:30.928Z,1006.14
2016-10-24T11:42:11.436Z,1006.17
2016-10-24T11:42:51.951Z,1006.16
2016-10-24T11:43:32.457Z,1006.18
2016-10-24T11:44:12.969Z,1006.15
2016-10-24T11:44:54.530Z,1006.17
2016-10-24T11:45:35.002Z,1006.17
2016-10-24T11:46:15.576Z,1006.2
2016-10-24T11:46:56.120Z,1006.17
2016-10-24T11:47:36.634Z,1006.15
2016-10-24T11:48:17.153Z,1006.14
2016-10-24T11:48:57.742Z,1006.18
2016-10-24T11:49:38.216Z,1006.16
2016-10-24T11:50:18.740Z,1006.19
2016-10-24T11:50:59.265Z,1006.19
2016-10-24T11:51:39.762Z,1006.22
2016-10-24T11:52:20.305Z,1006.24
2016-10-24T11:53:00.903Z,1006.23
2016-10-24T11:53:41.435Z,1006.25
2016-10-24T11:54:22.141Z,1006.19
2016-10-24T11:55:02.707Z,1006.23
2016-10-24T11:55:43.229Z,1006.23
2016-10-24T11:56:23.733Z,1006.22
2016-10-24T11:57:04.431Z,1006.16